sensor_id;sensor_type;location;lat;lon;timestamp;pressure;altitude;pressure_sealevel;temperature;humidity
20119;BME280;10220;42.716;23.306;2023-03-25T00:00:15;95017.41;;;10.45;100.00
20119;BME280;10220;42.716;23.306;2023-03-25T00:02:48;95007.81;;;10.89;100.00
20119;BME280;10220;42.716;23.306;2023-03-25T00:05:16;95016.72;;;10.62;100.00
20119;BME280;10220;42.716;23.306;2023-03-25T00:07:42;95002.38;;;10.97;100.00
20119;BME280;10220;42.716;23.306;2023-03-25T00:10:09;94985.06;;;10.97;100.00
20119;BME280;10220;42.716;23.306;2023-03-25T00:12:35;94988.38;;;11.04;100.00
20119;BME280;10220;42.716;23.306;2023-03-25T00:15:00;94986.44;;;11.24;100.00
20119;BME280;10220;42.716;23.306;2023-03-25T00:17:27;94980.69;;;12.42;100.00
20119;BME280;10220;42.716;23.306;2023-03-25T00:19:59;95002.84;;;12.09;100.00
20119;BME280;10220;42.716;23.306;2023-03-25T00:22:26;94990.72;;;11.85;100.00
20119;BME280;10220;42.716;23.306;2023-03-25T00:24:51;94981.78;;;11.99;100.00
20119;BME280;10220;42.716;23.306;2023-03-25T00:27:17;94969.97;;;11.61;100.00
20119;BME280;10220;42.716;23.306;2023-03-25T00:29:44;94979.91;;;11.88;100.00
20119;BME280;10220;42.716;23.306;2023-03-25T00:32:11;94976.28;;;12.42;100.00
20119;BME280;10220;42.716;23.306;2023-03-25T00:34:36;94982.31;;;13.01;100.00
20119;BME280;10220;42.716;23.306;2023-03-25T00:37:13;94984.75;;;12.38;100.00
20119;BME280;10220;42.716;23.306;2023-03-25T00:39:43;94982.47;;;11.46;100.00
20119;BME280;10220;42.716;23.306;2023-03-25T00:42:09;94977.19;;;11.59;100.00
20119;BME280;10220;42.716;23.306;2023-03-25T00:44:35;94982.00;;;11.97;100.00
20119;BME280;10220;42.716;23.306;2023-03-25T00:47:01;94981.72;;;11.87;100.00
20119;BME280;10220;42.716;23.306;2023-03-25T00:49:26;94971.78;;;11.60;100.00
20119;BME280;10220;42.716;23.306;2023-03-25T00:51:53;94962.25;;;11.30;100.00
20119;BME280;10220;42.716;23.306;2023-03-25T00:54:19;94960.66;;;11.05;100.00
20119;BME280;10220;42.716;23.306;2023-03-25T00:56:46;94949.13;;;11.25;100.00
20119;BME280;10220;42.716;23.306;2023-03-25T00:59:12;94948.97;;;11.44;100.00
20119;BME280;10220;42.716;23.306;2023-03-25T01:01:37;94964.25;;;11.76;100.00
20119;BME280;10220;42.716;23.306;2023-03-25T01:04:04;94963.44;;;12.29;100.00
20119;BME280;10220;42.716;23.306;2023-03-25T01:06:40;94942.69;;;12.59;100.00
20119;BME280;10220;42.716;23.306;2023-03-25T01:09:10;94958.78;;;12.96;100.00
20119;BME280;10220;42.716;23.306;2023-03-25T01:11:38;94949.56;;;11.88;100.00
20119;BME280;10220;42.716;23.306;2023-03-25T01:14:08;94931.88;;;11.97;100.00
20119;BME280;10220;42.716;23.306;2023-03-25T01:16:35;94952.25;;;12.76;100.00
20119;BME280;10220;42.716;23.306;2023-03-25T01:19:00;94947.94;;;12.88;100.00
20119;BME280;10220;42.716;23.306;2023-03-25T01:21:26;94960.84;;;13.06;100.00
20119;BME280;10220;42.716;23.306;2023-03-25T01:23:51;94934.72;;;13.12;100.00
20119;BME280;10220;42.716;23.306;2023-03-25T01:26:17;94897.72;;;12.88;100.00
20119;BME280;10220;42.716;23.306;2023-03-25T01:28:43;94927.19;;;13.22;100.00
20119;BME280;10220;42.716;23.306;2023-03-25T01:31:11;94923.31;;;12.14;100.00
20119;BME280;10220;42.716;23.306;2023-03-25T01:33:38;94919.16;;;12.83;100.00
20119;BME280;10220;42.716;23.306;2023-03-25T01:36:04;94925.66;;;13.03;100.00
20119;BME280;10220;42.716;23.306;2023-03-25T01:38:34;94925.69;;;13.15;100.00
20119;BME280;10220;42.716;23.306;2023-03-25T01:41:01;94912.00;;;11.91;100.00
20119;BME280;10220;42.716;23.306;2023-03-25T01:43:26;94922.06;;;12.17;100.00
20119;BME280;10220;42.716;23.306;2023-03-25T01:45:52;94919.75;;;12.09;100.00
20119;BME280;10220;42.716;23.306;2023-03-25T01:48:47;94914.50;;;10.64;100.00
20119;BME280;10220;42.716;23.306;2023-03-25T01:51:18;94925.34;;;11.76;100.00
20119;BME280;10220;42.716;23.306;2023-03-25T01:53:44;94914.66;;;11.24;100.00
20119;BME280;10220;42.716;23.306;2023-03-25T01:56:13;94916.03;;;11.03;100.00
20119;BME280;10220;42.716;23.306;2023-03-25T01:58:40;94902.53;;;11.78;100.00
20119;BME280;10220;42.716;23.306;2023-03-25T02:01:07;94919.78;;;12.38;100.00
20119;BME280;10220;42.716;23.306;2023-03-25T02:03:38;94909.38;;;12.09;100.00
20119;BME280;10220;42.716;23.306;2023-03-25T02:06:20;94902.19;;;11.93;100.00
20119;BME280;10220;42.716;23.306;2023-03-25T02:08:52;94917.59;;;11.04;100.00
20119;BME280;10220;42.716;23.306;2023-03-25T02:11:19;94910.16;;;10.58;100.00
20119;BME280;10220;42.716;23.306;2023-03-25T02:13:44;94902.69;;;11.66;100.00
20119;BME280;10220;42.716;23.306;2023-03-25T02:30:03;94891.91;;;12.16;100.00
20119;BME280;10220;42.716;23.306;2023-03-25T02:35:45;94893.41;;;11.34;100.00
20119;BME280;10220;42.716;23.306;2023-03-25T02:43:33;94898.88;;;12.04;100.00
20119;BME280;10220;42.716;23.306;2023-03-25T02:46:06;94897.94;;;12.28;100.00
20119;BME280;10220;42.716;23.306;2023-03-25T02:48:39;94893.81;;;12.38;100.00
20119;BME280;10220;42.716;23.306;2023-03-25T02:51:12;94892.59;;;11.75;100.00
20119;BME280;10220;42.716;23.306;2023-03-25T02:53:40;94901.84;;;12.36;100.00
20119;BME280;10220;42.716;23.306;2023-03-25T02:56:11;94885.88;;;12.04;100.00
20119;BME280;10220;42.716;23.306;2023-03-25T02:58:40;94887.91;;;12.60;100.00
20119;BME280;10220;42.716;23.306;2023-03-25T03:01:07;94887.34;;;12.70;100.00
20119;BME280;10220;42.716;23.306;2023-03-25T03:03:34;94876.09;;;12.35;100.00
20119;BME280;10220;42.716;23.306;2023-03-25T03:06:02;94877.53;;;11.84;100.00
20119;BME280;10220;42.716;23.306;2023-03-25T03:11:28;94876.44;;;12.09;100.00
20119;BME280;10220;42.716;23.306;2023-03-25T03:16:48;94884.94;;;11.98;100.00
20119;BME280;10220;42.716;23.306;2023-03-25T03:27:37;94895.44;;;12.50;100.00
20119;BME280;10220;42.716;23.306;2023-03-25T03:32:48;94877.97;;;11.99;100.00
20119;BME280;10220;42.716;23.306;2023-03-25T03:35:23;94901.09;;;11.65;100.00
20119;BME280;10220;42.716;23.306;2023-03-25T03:37:58;94886.59;;;11.75;100.00
20119;BME280;10220;42.716;23.306;2023-03-25T03:40:28;94901.16;;;11.58;100.00
20119;BME280;10220;42.716;23.306;2023-03-25T03:42:58;94904.06;;;11.68;100.00
20119;BME280;10220;42.716;23.306;2023-03-25T03:45:50;94881.38;;;10.73;100.00
20119;BME280;10220;42.716;23.306;2023-03-25T03:48:25;94892.22;;;10.63;100.00
20119;BME280;10220;42.716;23.306;2023-03-25T03:50:59;94892.22;;;10.26;100.00
20119;BME280;10220;42.716;23.306;2023-03-25T03:53:35;94888.53;;;10.47;100.00
20119;BME280;10220;42.716;23.306;2023-03-25T03:56:07;94884.06;;;11.09;100.00
20119;BME280;10220;42.716;23.306;2023-03-25T03:58:41;94886.72;;;11.44;100.00
20119;BME280;10220;42.716;23.306;2023-03-25T04:01:21;94884.44;;;11.72;100.00
20119;BME280;10220;42.716;23.306;2023-03-25T04:06:47;94896.13;;;11.21;100.00
20119;BME280;10220;42.716;23.306;2023-03-25T04:12:40;94887.28;;;11.28;100.00
20119;BME280;10220;42.716;23.306;2023-03-25T04:15:08;94878.59;;;11.16;100.00
20119;BME280;10220;42.716;23.306;2023-03-25T04:17:33;94891.66;;;11.52;100.00
20119;BME280;10220;42.716;23.306;2023-03-25T04:19:59;94900.94;;;12.13;100.00
20119;BME280;10220;42.716;23.306;2023-03-25T04:22:25;94889.88;;;11.88;100.00
20119;BME280;10220;42.716;23.306;2023-03-25T04:24:51;94885.19;;;11.79;100.00
20119;BME280;10220;42.716;23.306;2023-03-25T04:27:20;94883.72;;;11.05;100.00
20119;BME280;10220;42.716;23.306;2023-03-25T04:29:48;94891.59;;;11.34;100.00
20119;BME280;10220;42.716;23.306;2023-03-25T04:32:16;94877.66;;;9.88;100.00
20119;BME280;10220;42.716;23.306;2023-03-25T04:34:42;94899.16;;;10.32;100.00
20119;BME280;10220;42.716;23.306;2023-03-25T04:37:07;94874.94;;;10.82;100.00
20119;BME280;10220;42.716;23.306;2023-03-25T04:39:33;94897.56;;;11.17;100.00
20119;BME280;10220;42.716;23.306;2023-03-25T04:41:58;94897.78;;;11.15;100.00
20119;BME280;10220;42.716;23.306;2023-03-25T04:44:30;94901.47;;;11.44;100.00
20119;BME280;10220;42.716;23.306;2023-03-25T04:47:04;94908.66;;;12.02;100.00
20119;BME280;10220;42.716;23.306;2023-03-25T04:49:31;94895.97;;;12.12;100.00
20119;BME280;10220;42.716;23.306;2023-03-25T04:51:56;94898.22;;;11.30;100.00
20119;BME280;10220;42.716;23.306;2023-03-25T04:54:23;94904.69;;;10.73;100.00
20119;BME280;10220;42.716;23.306;2023-03-25T04:56:50;94881.84;;;11.54;100.00
20119;BME280;10220;42.716;23.306;2023-03-25T04:59:17;94897.28;;;11.25;100.00
20119;BME280;10220;42.716;23.306;2023-03-25T05:01:46;94885.09;;;10.52;100.00
20119;BME280;10220;42.716;23.306;2023-03-25T05:04:13;94902.09;;;10.42;100.00
20119;BME280;10220;42.716;23.306;2023-03-25T05:06:44;94882.88;;;10.25;100.00
20119;BME280;10220;42.716;23.306;2023-03-25T05:09:13;94887.28;;;10.80;100.00
20119;BME280;10220;42.716;23.306;2023-03-25T05:11:40;94907.94;;;10.31;100.00
20119;BME280;10220;42.716;23.306;2023-03-25T05:14:07;94903.56;;;10.87;100.00
20119;BME280;10220;42.716;23.306;2023-03-25T05:16:33;94911.97;;;12.09;100.00
20119;BME280;10220;42.716;23.306;2023-03-25T05:18:58;94884.88;;;12.34;100.00
20119;BME280;10220;42.716;23.306;2023-03-25T05:21:24;94908.34;;;12.86;100.00
20119;BME280;10220;42.716;23.306;2023-03-25T05:23:49;94902.16;;;13.10;100.00
20119;BME280;10220;42.716;23.306;2023-03-25T05:26:16;94894.72;;;13.48;100.00
20119;BME280;10220;42.716;23.306;2023-03-25T05:28:42;94899.78;;;13.54;100.00
20119;BME280;10220;42.716;23.306;2023-03-25T05:31:07;94902.75;;;13.57;100.00
20119;BME280;10220;42.716;23.306;2023-03-25T05:33:34;94897.53;;;13.69;100.00
20119;BME280;10220;42.716;23.306;2023-03-25T05:36:13;94891.56;;;14.19;100.00
20119;BME280;10220;42.716;23.306;2023-03-25T05:38:40;94876.91;;;14.29;100.00
20119;BME280;10220;42.716;23.306;2023-03-25T05:41:08;94894.09;;;14.42;100.00
20119;BME280;10220;42.716;23.306;2023-03-25T05:43:39;94901.16;;;14.58;100.00
20119;BME280;10220;42.716;23.306;2023-03-25T05:46:04;94908.34;;;14.00;100.00
20119;BME280;10220;42.716;23.306;2023-03-25T05:48:31;94901.13;;;13.91;100.00
20119;BME280;10220;42.716;23.306;2023-03-25T05:51:00;94898.38;;;14.08;100.00
20119;BME280;10220;42.716;23.306;2023-03-25T05:53:27;94901.03;;;14.36;100.00
20119;BME280;10220;42.716;23.306;2023-03-25T05:55:55;94909.69;;;14.14;98.14
20119;BME280;10220;42.716;23.306;2023-03-25T05:58:20;94898.47;;;12.77;100.00
20119;BME280;10220;42.716;23.306;2023-03-25T06:00:46;94906.72;;;13.26;100.00
20119;BME280;10220;42.716;23.306;2023-03-25T06:03:12;94920.16;;;12.82;100.00
20119;BME280;10220;42.716;23.306;2023-03-25T06:05:38;94902.16;;;13.67;100.00
20119;BME280;10220;42.716;23.306;2023-03-25T06:08:04;94902.78;;;14.19;100.00
20119;BME280;10220;42.716;23.306;2023-03-25T06:10:29;94890.78;;;14.07;95.99
20119;BME280;10220;42.716;23.306;2023-03-25T06:12:55;94896.69;;;14.69;100.00
20119;BME280;10220;42.716;23.306;2023-03-25T06:15:21;94885.47;;;14.69;92.54
20119;BME280;10220;42.716;23.306;2023-03-25T06:17:56;94894.41;;;14.06;92.37
20119;BME280;10220;42.716;23.306;2023-03-25T06:20:22;94887.38;;;14.07;100.00
20119;BME280;10220;42.716;23.306;2023-03-25T06:22:48;94896.59;;;13.98;96.55
20119;BME280;10220;42.716;23.306;2023-03-25T06:25:16;94890.56;;;15.08;93.83
20119;BME280;10220;42.716;23.306;2023-03-25T06:27:42;94898.66;;;15.39;90.88
20119;BME280;10220;42.716;23.306;2023-03-25T06:30:10;94904.13;;;15.92;84.49
20119;BME280;10220;42.716;23.306;2023-03-25T06:32:36;94906.88;;;16.23;82.45
20119;BME280;10220;42.716;23.306;2023-03-25T06:35:03;94909.34;;;15.54;78.27
20119;BME280;10220;42.716;23.306;2023-03-25T06:37:29;94894.53;;;15.43;81.40
20119;BME280;10220;42.716;23.306;2023-03-25T06:39:55;94907.25;;;14.91;85.83
20119;BME280;10220;42.716;23.306;2023-03-25T06:42:23;94908.25;;;15.50;88.25
20119;BME280;10220;42.716;23.306;2023-03-25T06:44:49;94895.59;;;15.26;80.96
20119;BME280;10220;42.716;23.306;2023-03-25T06:47:15;94895.72;;;15.36;90.88
20119;BME280;10220;42.716;23.306;2023-03-25T06:49:40;94909.94;;;15.78;84.41
20119;BME280;10220;42.716;23.306;2023-03-25T06:52:06;94908.06;;;16.16;85.71
20119;BME280;10220;42.716;23.306;2023-03-25T06:54:31;94907.38;;;15.28;80.20
20119;BME280;10220;42.716;23.306;2023-03-25T06:56:57;94909.81;;;14.74;85.18
20119;BME280;10220;42.716;23.306;2023-03-25T06:59:22;94914.78;;;15.04;91.18
20119;BME280;10220;42.716;23.306;2023-03-25T07:01:48;94908.06;;;15.08;85.49
20119;BME280;10220;42.716;23.306;2023-03-25T07:04:13;94912.69;;;14.89;90.74
20119;BME280;10220;42.716;23.306;2023-03-25T07:06:39;94920.00;;;15.20;90.00
20119;BME280;10220;42.716;23.306;2023-03-25T07:09:05;94906.28;;;14.80;85.87
20119;BME280;10220;42.716;23.306;2023-03-25T07:11:31;94909.47;;;15.15;85.52
20119;BME280;10220;42.716;23.306;2023-03-25T07:13:57;94902.50;;;15.04;87.54
20119;BME280;10220;42.716;23.306;2023-03-25T07:16:23;94903.44;;;14.26;88.27
20119;BME280;10220;42.716;23.306;2023-03-25T07:18:49;94900.16;;;14.75;92.45
20119;BME280;10220;42.716;23.306;2023-03-25T07:21:16;94908.47;;;14.72;88.46
20119;BME280;10220;42.716;23.306;2023-03-25T07:23:41;94904.47;;;14.97;90.30
20119;BME280;10220;42.716;23.306;2023-03-25T07:26:07;94910.75;;;15.45;85.79
20119;BME280;10220;42.716;23.306;2023-03-25T07:28:33;94904.19;;;15.10;85.80
20119;BME280;10220;42.716;23.306;2023-03-25T07:30:58;94897.97;;;14.83;89.07
20119;BME280;10220;42.716;23.306;2023-03-25T07:33:23;94898.34;;;15.90;85.70
20119;BME280;10220;42.716;23.306;2023-03-25T07:35:49;94901.94;;;16.05;83.26
20119;BME280;10220;42.716;23.306;2023-03-25T07:38:14;94883.22;;;16.13;81.72
20119;BME280;10220;42.716;23.306;2023-03-25T07:40:40;94892.72;;;16.41;82.28
20119;BME280;10220;42.716;23.306;2023-03-25T07:43:06;94895.38;;;16.46;84.22
20119;BME280;10220;42.716;23.306;2023-03-25T07:45:31;94879.31;;;16.58;81.10
20119;BME280;10220;42.716;23.306;2023-03-25T07:48:02;94888.69;;;16.81;79.19
20119;BME280;10220;42.716;23.306;2023-03-25T07:50:27;94879.22;;;17.32;72.70
20119;BME280;10220;42.716;23.306;2023-03-25T07:52:53;94879.72;;;17.03;73.61
20119;BME280;10220;42.716;23.306;2023-03-25T07:55:19;94873.09;;;17.22;72.68
20119;BME280;10220;42.716;23.306;2023-03-25T07:57:45;94874.13;;;16.90;76.91
20119;BME280;10220;42.716;23.306;2023-03-25T08:00:10;94866.91;;;17.33;72.57
20119;BME280;10220;42.716;23.306;2023-03-25T08:02:36;94866.47;;;17.14;72.35
20119;BME280;10220;42.716;23.306;2023-03-25T08:05:03;94868.69;;;16.96;74.61
20119;BME280;10220;42.716;23.306;2023-03-25T08:07:30;94861.34;;;16.98;76.03
20119;BME280;10220;42.716;23.306;2023-03-25T08:09:55;94855.59;;;16.96;77.16
20119;BME280;10220;42.716;23.306;2023-03-25T08:12:21;94857.19;;;16.97;73.20
20119;BME280;10220;42.716;23.306;2023-03-25T08:14:46;94850.13;;;17.29;74.07
20119;BME280;10220;42.716;23.306;2023-03-25T08:17:11;94845.56;;;17.51;70.94
20119;BME280;10220;42.716;23.306;2023-03-25T08:19:37;94841.06;;;17.41;74.49
20119;BME280;10220;42.716;23.306;2023-03-25T08:22:03;94842.69;;;17.52;72.04
20119;BME280;10220;42.716;23.306;2023-03-25T08:24:28;94834.53;;;17.49;70.85
20119;BME280;10220;42.716;23.306;2023-03-25T08:26:56;94845.53;;;17.14;75.87
20119;BME280;10220;42.716;23.306;2023-03-25T08:29:25;94825.66;;;17.55;71.78
20119;BME280;10220;42.716;23.306;2023-03-25T08:31:51;94845.91;;;18.20;68.92
20119;BME280;10220;42.716;23.306;2023-03-25T08:34:19;94840.16;;;18.23;67.32
20119;BME280;10220;42.716;23.306;2023-03-25T08:36:45;94836.13;;;18.06;66.69
20119;BME280;10220;42.716;23.306;2023-03-25T08:39:11;94837.78;;;18.22;65.41
20119;BME280;10220;42.716;23.306;2023-03-25T08:41:38;94821.09;;;18.62;65.25
20119;BME280;10220;42.716;23.306;2023-03-25T08:44:07;94828.25;;;19.06;62.35
20119;BME280;10220;42.716;23.306;2023-03-25T08:46:32;94807.75;;;18.88;61.25
20119;BME280;10220;42.716;23.306;2023-03-25T08:48:57;94820.31;;;18.86;60.81
20119;BME280;10220;42.716;23.306;2023-03-25T08:51:23;94816.16;;;19.25;61.00
20119;BME280;10220;42.716;23.306;2023-03-25T08:53:48;94816.81;;;19.85;59.40
20119;BME280;10220;42.716;23.306;2023-03-25T08:56:14;94798.19;;;19.72;58.01
20119;BME280;10220;42.716;23.306;2023-03-25T08:58:40;94807.19;;;19.46;60.06
20119;BME280;10220;42.716;23.306;2023-03-25T09:01:06;94785.16;;;20.10;57.18
20119;BME280;10220;42.716;23.306;2023-03-25T09:03:32;94804.75;;;19.84;58.08
20119;BME280;10220;42.716;23.306;2023-03-25T09:06:02;94804.72;;;20.47;57.25
20119;BME280;10220;42.716;23.306;2023-03-25T09:08:28;94802.16;;;20.85;54.87
20119;BME280;10220;42.716;23.306;2023-03-25T09:10:54;94787.41;;;21.41;52.09
20119;BME280;10220;42.716;23.306;2023-03-25T09:13:19;94789.72;;;20.91;51.21
20119;BME280;10220;42.716;23.306;2023-03-25T09:15:45;94782.56;;;20.58;51.69
20119;BME280;10220;42.716;23.306;2023-03-25T09:18:10;94778.69;;;20.41;52.36
20119;BME280;10220;42.716;23.306;2023-03-25T09:20:36;94789.91;;;20.61;54.78
20119;BME280;10220;42.716;23.306;2023-03-25T09:23:01;94758.97;;;21.10;53.30
20119;BME280;10220;42.716;23.306;2023-03-25T09:25:27;94780.59;;;20.73;52.57
20119;BME280;10220;42.716;23.306;2023-03-25T09:27:52;94771.91;;;21.34;52.79
20119;BME280;10220;42.716;23.306;2023-03-25T09:30:18;94780.41;;;21.60;50.35
20119;BME280;10220;42.716;23.306;2023-03-25T09:32:43;94776.28;;;20.49;52.40
20119;BME280;10220;42.716;23.306;2023-03-25T09:35:09;94771.06;;;21.16;54.65
20119;BME280;10220;42.716;23.306;2023-03-25T09:37:34;94765.63;;;21.02;53.66
20119;BME280;10220;42.716;23.306;2023-03-25T09:40:00;94763.19;;;21.39;51.56
20119;BME280;10220;42.716;23.306;2023-03-25T09:47:33;94748.75;;;21.83;48.83
20119;BME280;10220;42.716;23.306;2023-03-25T09:50:03;94757.34;;;22.35;47.28
20119;BME280;10220;42.716;23.306;2023-03-25T09:53:04;94751.34;;;22.06;47.65
20119;BME280;10220;42.716;23.306;2023-03-25T09:55:35;94747.16;;;22.24;46.72
20119;BME280;10220;42.716;23.306;2023-03-25T09:58:25;94729.44;;;21.36;46.21
20119;BME280;10220;42.716;23.306;2023-03-25T10:06:56;94717.06;;;21.13;46.77
20119;BME280;10220;42.716;23.306;2023-03-25T10:14:57;94729.94;;;21.15;45.88
20119;BME280;10220;42.716;23.306;2023-03-25T10:20:58;94709.19;;;22.01;44.04
20119;BME280;10220;42.716;23.306;2023-03-25T10:23:36;94694.13;;;22.20;42.90
20119;BME280;10220;42.716;23.306;2023-03-25T10:26:16;94695.09;;;22.29;43.05
20119;BME280;10220;42.716;23.306;2023-03-25T10:28:51;94681.88;;;22.11;43.13
20119;BME280;10220;42.716;23.306;2023-03-25T10:31:22;94696.56;;;21.98;43.35
20119;BME280;10220;42.716;23.306;2023-03-25T10:33:53;94690.03;;;21.54;44.48
20119;BME280;10220;42.716;23.306;2023-03-25T10:36:37;94689.69;;;21.61;45.20
20119;BME280;10220;42.716;23.306;2023-03-25T10:39:13;94682.66;;;21.51;45.20
20119;BME280;10220;42.716;23.306;2023-03-25T10:41:45;94682.59;;;21.56;44.59
20119;BME280;10220;42.716;23.306;2023-03-25T10:44:11;94683.56;;;21.37;43.69
20119;BME280;10220;42.716;23.306;2023-03-25T10:49:16;94686.00;;;21.10;43.46
20119;BME280;10220;42.716;23.306;2023-03-25T10:51:42;94677.34;;;21.28;45.49
20119;BME280;10220;42.716;23.306;2023-03-25T10:54:11;94660.78;;;21.51;44.32
20119;BME280;10220;42.716;23.306;2023-03-25T10:56:41;94662.34;;;22.12;43.08
20119;BME280;10220;42.716;23.306;2023-03-25T10:59:30;94661.47;;;22.35;43.99
20119;BME280;10220;42.716;23.306;2023-03-25T11:02:01;94658.81;;;22.35;43.64
20119;BME280;10220;42.716;23.306;2023-03-25T11:04:36;94644.28;;;22.69;42.25
20119;BME280;10220;42.716;23.306;2023-03-25T11:07:17;94647.41;;;23.03;42.49
20119;BME280;10220;42.716;23.306;2023-03-25T11:09:47;94644.47;;;23.04;43.34
20119;BME280;10220;42.716;23.306;2023-03-25T11:12:21;94627.22;;;23.60;43.08
20119;BME280;10220;42.716;23.306;2023-03-25T11:14:54;94617.09;;;23.89;41.45
20119;BME280;10220;42.716;23.306;2023-03-25T11:17:21;94619.00;;;23.62;41.90
20119;BME280;10220;42.716;23.306;2023-03-25T11:22:18;94619.63;;;23.45;42.86
20119;BME280;10220;42.716;23.306;2023-03-25T11:24:48;94617.47;;;23.34;43.30
20119;BME280;10220;42.716;23.306;2023-03-25T11:27:21;94620.28;;;23.24;41.36
20119;BME280;10220;42.716;23.306;2023-03-25T11:30:03;94617.44;;;23.07;41.60
20119;BME280;10220;42.716;23.306;2023-03-25T11:32:37;94601.16;;;22.42;41.88
20119;BME280;10220;42.716;23.306;2023-03-25T11:35:20;94611.09;;;22.63;41.89
20119;BME280;10220;42.716;23.306;2023-03-25T11:37:52;94591.41;;;22.55;42.38
20119;BME280;10220;42.716;23.306;2023-03-25T11:40:18;94582.50;;;22.51;41.85
20119;BME280;10220;42.716;23.306;2023-03-25T11:42:50;94590.91;;;22.03;41.89
20119;BME280;10220;42.716;23.306;2023-03-25T11:45:22;94585.41;;;22.18;43.77
20119;BME280;10220;42.716;23.306;2023-03-25T11:47:49;94595.31;;;22.44;43.03
20119;BME280;10220;42.716;23.306;2023-03-25T11:50:21;94560.75;;;22.09;43.05
20119;BME280;10220;42.716;23.306;2023-03-25T11:52:48;94586.63;;;22.57;42.83
20119;BME280;10220;42.716;23.306;2023-03-25T11:55:19;94570.78;;;22.57;42.97
20119;BME280;10220;42.716;23.306;2023-03-25T11:57:48;94556.28;;;22.55;42.59
20119;BME280;10220;42.716;23.306;2023-03-25T12:05:42;94563.25;;;22.19;42.94
20119;BME280;10220;42.716;23.306;2023-03-25T12:08:20;94553.88;;;21.58;42.16
20119;BME280;10220;42.716;23.306;2023-03-25T12:10:54;94571.91;;;21.70;43.17
20119;BME280;10220;42.716;23.306;2023-03-25T12:16:17;94567.47;;;21.47;43.38
20119;BME280;10220;42.716;23.306;2023-03-25T12:21:25;94575.00;;;21.35;43.02
20119;BME280;10220;42.716;23.306;2023-03-25T12:46:19;94567.78;;;21.22;44.78
20119;BME280;10220;42.716;23.306;2023-03-25T12:59:36;94561.06;;;21.11;43.11
20119;BME280;10220;42.716;23.306;2023-03-25T13:05:21;94565.75;;;20.72;43.92
20119;BME280;10220;42.716;23.306;2023-03-25T13:07:56;94561.25;;;20.96;44.37
20119;BME280;10220;42.716;23.306;2023-03-25T13:10:27;94564.78;;;20.87;44.43
20119;BME280;10220;42.716;23.306;2023-03-25T13:12:57;94563.16;;;20.91;44.98
20119;BME280;10220;42.716;23.306;2023-03-25T13:15:25;94558.28;;;20.79;43.66
20119;BME280;10220;42.716;23.306;2023-03-25T13:18:18;94560.97;;;20.74;44.82
20119;BME280;10220;42.716;23.306;2023-03-25T13:20:47;94550.16;;;20.76;44.44
20119;BME280;10220;42.716;23.306;2023-03-25T13:23:19;94552.84;;;20.94;45.01
20119;BME280;10220;42.716;23.306;2023-03-25T13:26:05;94560.06;;;20.84;43.99
20119;BME280;10220;42.716;23.306;2023-03-25T13:28:43;94557.00;;;20.77;44.41
20119;BME280;10220;42.716;23.306;2023-03-25T13:31:17;94561.25;;;20.45;45.25
20119;BME280;10220;42.716;23.306;2023-03-25T13:34:18;94557.00;;;20.20;45.12
20119;BME280;10220;42.716;23.306;2023-03-25T13:36:52;94568.88;;;20.18;45.63
20119;BME280;10220;42.716;23.306;2023-03-25T13:45:02;94593.41;;;19.65;47.04
20119;BME280;10220;42.716;23.306;2023-03-25T13:47:31;94577.53;;;19.42;47.58
20119;BME280;10220;42.716;23.306;2023-03-25T13:50:13;94595.84;;;19.57;47.34
20119;BME280;10220;42.716;23.306;2023-03-25T13:52:43;94613.53;;;19.42;47.88
20119;BME280;10220;42.716;23.306;2023-03-25T13:55:24;94606.56;;;19.12;50.12
20119;BME280;10220;42.716;23.306;2023-03-25T14:11:26;94614.84;;;18.26;66.95
20119;BME280;10220;42.716;23.306;2023-03-25T14:13:58;94597.53;;;18.16;64.71
20119;BME280;10220;42.716;23.306;2023-03-25T14:16:46;94607.50;;;18.43;70.24
20119;BME280;10220;42.716;23.306;2023-03-25T14:19:15;94614.56;;;18.63;65.99
20119;BME280;10220;42.716;23.306;2023-03-25T14:21:47;94599.09;;;17.92;71.27
20119;BME280;10220;42.716;23.306;2023-03-25T14:24:31;94615.84;;;17.66;77.31
20119;BME280;10220;42.716;23.306;2023-03-25T14:27:00;94615.59;;;17.87;80.03
20119;BME280;10220;42.716;23.306;2023-03-25T14:29:35;94615.59;;;17.87;83.84
20119;BME280;10220;42.716;23.306;2023-03-25T14:34:35;94607.97;;;17.71;93.28
20119;BME280;10220;42.716;23.306;2023-03-25T14:44:33;94552.25;;;16.95;100.00
20119;BME280;10220;42.716;23.306;2023-03-25T14:47:26;94549.69;;;17.14;100.00
20119;BME280;10220;42.716;23.306;2023-03-25T14:52:51;94540.34;;;17.43;100.00
20119;BME280;10220;42.716;23.306;2023-03-25T14:55:30;94542.19;;;17.38;99.37
20119;BME280;10220;42.716;23.306;2023-03-25T14:57:59;94533.03;;;17.65;100.00
20119;BME280;10220;42.716;23.306;2023-03-25T15:00:32;94534.09;;;17.79;100.00
20119;BME280;10220;42.716;23.306;2023-03-25T15:05:35;94534.34;;;17.58;97.88
20119;BME280;10220;42.716;23.306;2023-03-25T15:10:37;94529.09;;;17.43;100.00
20119;BME280;10220;42.716;23.306;2023-03-25T15:13:28;94523.31;;;17.41;100.00
20119;BME280;10220;42.716;23.306;2023-03-25T15:16:03;94522.25;;;17.27;100.00
20119;BME280;10220;42.716;23.306;2023-03-25T15:26:41;94513.84;;;17.20;99.05
20119;BME280;10220;42.716;23.306;2023-03-25T15:32:11;94520.16;;;17.24;98.11
20119;BME280;10220;42.716;23.306;2023-03-25T15:43:23;94516.78;;;17.48;99.42
20119;BME280;10220;42.716;23.306;2023-03-25T15:49:47;94498.91;;;17.20;100.00
20119;BME280;10220;42.716;23.306;2023-03-25T15:52:24;94492.94;;;17.30;99.67
20119;BME280;10220;42.716;23.306;2023-03-25T15:55:32;94502.88;;;17.28;99.79